Time;durP1;ratioP1;P1;durP2;ratioP2;P2;SDS_P1;SDS_P2;PMS_P1;PMS_P2;Temp;Humidity;BMP_temperature;BMP_pressure;BME280_temperature;BME280_humidity;BME280_pressure;Samples;Min_cycle;Max_cycle;Signal;HPM_P1;HPM_P2
2019/05/25 00:02:08;;;;;;;6;4.2;;;;;;;12.32;73.79688;936.7304;;;;
2019/05/25 00:04:41;;;;;;;5.9;4.4;;;;;;;12.15;74.80273;936.6406;;;;
2019/05/25 00:07:14;;;;;;;6.9;4.7;;;;;;;12.44;74.59961;936.5981;;;;
2019/05/25 00:09:46;;;;;;;6.7;4.3;;;;;;;12.53;73.50098;936.6228;;;;
2019/05/25 00:12:15;;;;;;;5.8;4.1;;;;;;;12.6;73.42188;936.6067;;;;
2019/05/25 00:14:43;;;;;;;6.8;4.7;;;;;;;12.71;73.08301;936.6261;;;;
2019/05/25 00:17:16;;;;;;;9.7;5.5;;;;;;;12.8;72.79004;936.5948;;;;
2019/05/25 00:19:46;;;;;;;8.5;4.9;;;;;;;12.85;71.94922;936.5638;;;;
2019/05/25 00:22:13;;;;;;;6.4;4.8;;;;;;;12.88;72.63086;936.5438;;;;
2019/05/25 00:24:41;;;;;;;9.3;5.3;;;;;;;12.89;72.31152;936.6236;;;;
2019/05/25 00:27:09;;;;;;;7.8;5.7;;;;;;;12.95;71.96582;936.6003;;;;
2019/05/25 00:29:42;;;;;;;9.3;5.6;;;;;;;12.85;71.99414;936.5262;;;;
2019/05/25 00:32:24;;;;;;;8.8;5.4;;;;;;;12.8;72.03223;936.5644;;;;
2019/05/25 00:35:04;;;;;;;8.4;6;;;;;;;12.56;72.76172;936.5006;;;;
2019/05/25 00:40:22;;;;;;;9;6.5;;;;;;;12.37;73.43945;936.6058;;;;
2019/05/25 00:42:54;;;;;;;11;5.9;;;;;;;12.35;73.39063;936.4885;;;;
2019/05/25 00:45:25;;;;;;;7.8;5.8;;;;;;;12.31;73.29297;936.5349;;;;
2019/05/25 00:47:55;;;;;;;11.7;6.3;;;;;;;12.25;73.77539;936.4222;;;;
2019/05/25 00:50:23;;;;;;;9.6;5.7;;;;;;;12.33;73.43359;936.4478;;;;
2019/05/25 00:52:51;;;;;;;7.1;5.6;;;;;;;12.29;73.50781;936.4437;;;;
2019/05/25 00:55:29;;;;;;;8.5;5.7;;;;;;;12.34;73.48047;936.455;;;;
2019/05/25 00:58:01;;;;;;;8.1;5.1;;;;;;;12.25;73.20313;936.4645;;;;
2019/05/25 01:00:39;;;;;;;6.7;5.2;;;;;;;12;74.06445;936.5078;;;;
2019/05/25 01:03:18;;;;;;;10.5;5.6;;;;;;;12.08;74.18164;936.4315;;;;
2019/05/25 01:06:00;;;;;;;7.4;5;;;;;;;12;73.93945;936.4647;;;;
2019/05/25 01:08:33;;;;;;;7.3;5.3;;;;;;;11.97;73.94531;936.3912;;;;
2019/05/25 01:10:56;;;;;;;7.7;5.1;;;;;;;11.86;74.41895;936.4709;;;;
2019/05/25 01:13:28;;;;;;;7.6;5.5;;;;;;;11.78;74.47363;936.4231;;;;
2019/05/25 01:16:04;;;;;;;6.5;5.1;;;;;;;11.72;74.78516;936.4461;;;;
2019/05/25 01:18:35;;;;;;;8.5;5.6;;;;;;;11.53;75.95215;936.4358;;;;
2019/05/25 01:21:07;;;;;;;7.6;5.6;;;;;;;11.72;75.53906;936.3998;;;;
2019/05/25 01:23:39;;;;;;;9.4;5.4;;;;;;;11.88;74.41016;936.5068;;;;
2019/05/25 01:26:15;;;;;;;8;6;;;;;;;11.91;74.11719;936.4653;;;;
2019/05/25 01:28:47;;;;;;;7.1;5.3;;;;;;;11.99;73.84473;936.4104;;;;
2019/05/25 01:31:16;;;;;;;7.1;5.2;;;;;;;11.9;73.99121;936.4709;;;;
2019/05/25 01:33:52;;;;;;;8.4;5.4;;;;;;;11.81;74.14746;936.399;;;;
2019/05/25 01:36:24;;;;;;;6.7;5.8;;;;;;;11.7;74.6084;936.4995;;;;
2019/05/25 01:39:08;;;;;;;6;5.4;;;;;;;11.62;74.85742;936.406;;;;
2019/05/25 01:41:38;;;;;;;7.3;5.2;;;;;;;11.49;75.29395;936.4739;;;;
2019/05/25 01:44:09;;;;;;;6.6;5.4;;;;;;;11.03;77.26172;936.447;;;;
2019/05/25 01:46:41;;;;;;;9.7;5.7;;;;;;;10.9;77.95605;936.486;;;;
2019/05/25 01:49:09;;;;;;;6;5.4;;;;;;;10.71;78.75684;936.3977;;;;
2019/05/25 01:51:39;;;;;;;9;5.7;;;;;;;10.53;79.58008;936.5214;;;;
2019/05/25 01:54:10;;;;;;;8;5.1;;;;;;;10.7;79.00684;936.4495;;;;
2019/05/25 01:56:38;;;;;;;7.6;5.5;;;;;;;10.92;77.92578;936.4534;;;;
2019/05/25 01:59:04;;;;;;;5.6;5;;;;;;;11.15;76.91504;936.4443;;;;
2019/05/25 02:01:34;;;;;;;6.6;5.8;;;;;;;11.2;76.26172;936.4389;;;;
2019/05/25 02:04:05;;;;;;;6.4;5.3;;;;;;;11.15;76.28613;936.3758;;;;
2019/05/25 02:06:36;;;;;;;8.5;5.5;;;;;;;11.28;75.7041;936.418;;;;
2019/05/25 02:09:12;;;;;;;7.6;5.5;;;;;;;11.27;75.61035;936.4236;;;;
2019/05/25 02:11:44;;;;;;;6.9;5.4;;;;;;;11.1;76.25391;936.4361;;;;
2019/05/25 02:14:13;;;;;;;8.3;5.7;;;;;;;11.12;76.69336;936.4506;;;;
2019/05/25 02:16:57;;;;;;;7.7;5.4;;;;;;;11.02;76.60645;936.4183;;;;
2019/05/25 02:19:39;;;;;;;7.3;5.6;;;;;;;10.99;76.71582;936.4512;;;;
2019/05/25 02:22:16;;;;;;;8.6;5.6;;;;;;;11.08;76.32031;936.4081;;;;
2019/05/25 02:24:49;;;;;;;7.7;5.5;;;;;;;11.01;76.66211;936.3684;;;;
2019/05/25 02:27:15;;;;;;;7.8;5.6;;;;;;;11.13;76.03125;936.3566;;;;
2019/05/25 02:29:49;;;;;;;6.7;5.4;;;;;;;11.15;75.91992;936.3845;;;;
2019/05/25 02:32:13;;;;;;;8.1;5.7;;;;;;;11.27;75.50781;936.3;;;;
2019/05/25 02:34:46;;;;;;;9.5;5.7;;;;;;;11.23;75.29395;936.2704;;;;
2019/05/25 02:37:22;;;;;;;7.6;5.3;;;;;;;11.14;75.77148;936.2833;;;;
2019/05/25 02:39:52;;;;;;;8.1;5.6;;;;;;;10.9;76.35742;936.2684;;;;
2019/05/25 02:42:17;;;;;;;6.8;5.6;;;;;;;10.74;76.95703;936.1869;;;;
2019/05/25 02:44:46;;;;;;;8.5;6.1;;;;;;;10.55;77.80273;936.269;;;;
2019/05/25 02:47:25;;;;;;;6.7;5.6;;;;;;;10.43;78.40723;936.3066;;;;
2019/05/25 02:49:53;;;;;;;7.9;5.7;;;;;;;10.71;77.30469;936.2623;;;;
2019/05/25 02:52:19;;;;;;;7.7;5.5;;;;;;;10.68;77.0957;936.2519;;;;
2019/05/25 02:54:53;;;;;;;7.9;5.5;;;;;;;10.72;76.97461;936.3206;;;;
2019/05/25 03:01:06;;;;;;;10.4;5.8;;;;;;;10.89;76.16016;936.3974;;;;
2019/05/25 05:03:16;;;;;;;8.5;5.7;;;;;;;11.25;76.07617;936.7693;;;;
2019/05/25 05:05:45;;;;;;;12.5;5.2;;;;;;;11.69;76.23438;936.7723;;;;
2019/05/25 05:08:18;;;;;;;10.1;5.4;;;;;;;12.61;73.76758;936.7681;;;;
2019/05/25 05:11:01;;;;;;;9.8;4.8;;;;;;;13.49;69.53613;936.7012;;;;
2019/05/25 05:13:34;;;;;;;6.8;4;;;;;;;13.97;65.76855;936.5848;;;;
2019/05/25 05:16:07;;;;;;;5.7;3.9;;;;;;;13.96;66.28711;936.5297;;;;
2019/05/25 05:18:36;;;;;;;9.2;4.2;;;;;;;14.56;64.46484;936.6345;;;;
2019/05/25 05:21:05;;;;;;;9.1;3.7;;;;;;;15.5;61.15039;936.6382;;;;
2019/05/25 05:23:38;;;;;;;6;3.4;;;;;;;16.09;57.91309;936.5746;;;;
2019/05/25 05:26:06;;;;;;;4.9;3.2;;;;;;;15.81;58.44238;936.5683;;;;
2019/05/25 05:28:33;;;;;;;6.2;3.2;;;;;;;15.46;58.67383;936.5963;;;;
2019/05/25 05:30:57;;;;;;;12.9;4.1;;;;;;;15.27;60.02246;936.55;;;;
2019/05/25 05:33:35;;;;;;;4.9;3.6;;;;;;;15.16;60.49219;936.5661;;;;
2019/05/25 05:36:03;;;;;;;4.4;3.4;;;;;;;15.47;59.79395;936.5784;;;;
2019/05/25 05:38:34;;;;;;;6;3.3;;;;;;;16.48;57.30566;936.6046;;;;
2019/05/25 05:41:07;;;;;;;6.1;3.7;;;;;;;15.66;58.96484;936.5695;;;;
2019/05/25 05:44:01;;;;;;;4.9;3.3;;;;;;;15.4;61.60938;936.5309;;;;
2019/05/25 05:46:43;;;;;;;4.6;3.4;;;;;;;16.3;57.83789;936.5147;;;;
2019/05/25 05:49:34;;;;;;;6.8;3.1;;;;;;;17.39;53.15625;936.4981;;;;
2019/05/25 05:52:10;;;;;;;3.7;2.8;;;;;;;18.25;49.7627;936.4817;;;;
2019/05/25 05:54:51;;;;;;;12;3.7;;;;;;;18.44;49.27246;936.4783;;;;
2019/05/25 05:57:31;;;;;;;6.2;3.2;;;;;;;18.16;50.4375;936.4536;;;;
2019/05/25 06:00:10;;;;;;;7.6;3.4;;;;;;;18.59;49.5791;936.4416;;;;
2019/05/25 06:02:40;;;;;;;5.7;2.8;;;;;;;18.47;48.81055;936.4188;;;;
2019/05/25 06:05:12;;;;;;;5.4;2.7;;;;;;;18.4;49.78027;936.4958;;;;
2019/05/25 06:07:38;;;;;;;4.5;2.6;;;;;;;18.81;52.24609;936.4908;;;;
2019/05/25 06:10:11;;;;;;;5.9;2.6;;;;;;;19.63;46.6416;936.3884;;;;
2019/05/25 06:12:43;;;;;;;7.8;2.6;;;;;;;20.12;47.5459;936.3538;;;;
2019/05/25 06:15:27;;;;;;;3.9;2.7;;;;;;;21.19;46.28027;936.4875;;;;
2019/05/25 06:17:54;;;;;;;4.2;2.4;;;;;;;21.9;44.30469;936.4091;;;;
2019/05/25 06:20:28;;;;;;;3;2.4;;;;;;;22.74;40.86621;936.3536;;;;
2019/05/25 06:23:00;;;;;;;2.9;2.2;;;;;;;22.14;39.38086;936.4056;;;;
2019/05/25 06:25:32;;;;;;;7.2;2.4;;;;;;;23.19;38.22852;936.2319;;;;
2019/05/25 06:28:06;;;;;;;3.4;2.1;;;;;;;22.75;39.41113;936.3395;;;;
2019/05/25 06:30:35;;;;;;;4.5;2.3;;;;;;;22.53;39.36914;936.3067;;;;
2019/05/25 06:33:11;;;;;;;3.7;2.3;;;;;;;21.61;40.35156;936.2955;;;;
2019/05/25 06:35:34;;;;;;;4;1.9;;;;;;;21.77;40.57715;936.3377;;;;
2019/05/25 06:38:08;;;;;;;4;2.2;;;;;;;21.5;40.61133;936.3197;;;;
2019/05/25 06:40:36;;;;;;;3.2;2.2;;;;;;;21.53;41.0957;936.2623;;;;
2019/05/25 06:43:12;;;;;;;6.2;2.3;;;;;;;22.21;39.47949;936.1801;;;;
2019/05/25 06:45:46;;;;;;;2.8;2.1;;;;;;;23.46;40.5332;936.2395;;;;
2019/05/25 06:48:25;;;;;;;7.4;2.4;;;;;;;24.18;35.76855;936.2452;;;;
2019/05/25 06:51:08;;;;;;;4.6;2.2;;;;;;;24.24;36.0918;936.2231;;;;
2019/05/25 06:53:31;;;;;;;5.5;2.1;;;;;;;24.68;37.47168;936.3069;;;;
2019/05/25 06:55:58;;;;;;;3.6;2.1;;;;;;;24.2;35.22852;936.2417;;;;
2019/05/25 06:58:32;;;;;;;4.6;2.2;;;;;;;23.15;41.10254;936.2687;;;;
2019/05/25 07:00:59;;;;;;;3.8;2;;;;;;;24.05;38.16113;936.282;;;;
2019/05/25 07:03:32;;;;;;;5.2;2.4;;;;;;;25.17;34.03027;936.3281;;;;
2019/05/25 07:06:00;;;;;;;5.9;2.2;;;;;;;25.97;35.37988;936.2847;;;;
2019/05/25 07:08:30;;;;;;;4.6;2;;;;;;;26.08;34.49023;936.2548;;;;
2019/05/25 07:11:04;;;;;;;3.4;2;;;;;;;26.34;33.70605;936.3126;;;;
2019/05/25 07:13:35;;;;;;;4.7;2.2;;;;;;;26.87;34.75195;936.2109;;;;
2019/05/25 07:16:02;;;;;;;3.5;2.1;;;;;;;27.74;34.37988;936.3995;;;;
2019/05/25 07:19:01;;;;;;;3.5;2.1;;;;;;;28.06;31.91016;936.3856;;;;
2019/05/25 07:21:29;;;;;;;4.6;2.3;;;;;;;28.18;31.05176;936.3689;;;;
2019/05/25 07:23:57;;;;;;;6.6;2.3;;;;;;;28;32.77246;936.4257;;;;
2019/05/25 07:26:29;;;;;;;5.2;2.6;;;;;;;28.47;32.89063;936.4083;;;;
2019/05/25 07:29:04;;;;;;;3.5;2.1;;;;;;;28.83;31.88184;936.4954;;;;
2019/05/25 07:31:33;;;;;;;3.6;2.4;;;;;;;28.01;32.95215;936.5069;;;;
2019/05/25 07:34:20;;;;;;;3.2;2.4;;;;;;;28.68;30.9668;936.5439;;;;
2019/05/25 07:36:54;;;;;;;2.8;2;;;;;;;28.44;30.24902;936.4752;;;;
2019/05/25 07:39:35;;;;;;;3.9;2.3;;;;;;;28.95;28.60449;936.437;;;;
2019/05/25 07:41:58;;;;;;;3.2;2.2;;;;;;;30.04;26.66895;936.4325;;;;
2019/05/25 07:44:31;;;;;;;3.6;2.2;;;;;;;29.51;27.41309;936.432;;;;
2019/05/25 07:51:17;;;;;;;4.4;2.6;;;;;;;29.03;30.37109;936.3569;;;;
2019/05/25 07:53:54;;;;;;;4.6;3;;;;;;;30.11;26.76855;936.31;;;;
2019/05/25 07:56:26;;;;;;;5.5;3.4;;;;;;;27.99;30.38477;936.3183;;;;
2019/05/25 07:59:00;;;;;;;5.7;3.2;;;;;;;29.01;30.23828;936.3214;;;;
2019/05/25 08:01:32;;;;;;;6.2;3.6;;;;;;;29.05;28.59961;936.3322;;;;
2019/05/25 08:04:02;;;;;;;5.3;3.2;;;;;;;27.91;30.71191;936.3233;;;;
2019/05/25 08:06:29;;;;;;;5.8;3.4;;;;;;;27.74;31.7334;936.2896;;;;
2019/05/25 08:09:06;;;;;;;4.6;3.3;;;;;;;27.35;31.0293;936.3156;;;;
2019/05/25 08:11:58;;;;;;;4.8;3.3;;;;;;;27.23;31.75586;936.3133;;;;
2019/05/25 08:14:44;;;;;;;5.4;3.4;;;;;;;27.18;32.3457;936.2856;;;;
2019/05/25 08:17:24;;;;;;;5.6;3.4;;;;;;;26.81;32.70996;936.1763;;;;
2019/05/25 08:20:13;;;;;;;4;3;;;;;;;26.58;32.72852;936.1611;;;;
2019/05/25 08:22:43;;;;;;;5;2.7;;;;;;;26.18;34.63965;936.2598;;;;
2019/05/25 08:25:13;;;;;;;4.3;3.5;;;;;;;26.12;33.09766;936.3139;;;;
2019/05/25 08:27:49;;;;;;;6.2;3.9;;;;;;;25.76;33.17676;936.3356;;;;
2019/05/25 08:30:34;;;;;;;6.2;3.9;;;;;;;25.57;33.05566;936.3483;;;;
2019/05/25 08:33:22;;;;;;;5.5;3.7;;;;;;;26.06;33.30664;936.3395;;;;
2019/05/25 08:35:55;;;;;;;6.2;3.3;;;;;;;26.22;33.03418;936.2706;;;;
2019/05/25 08:38:32;;;;;;;5.3;3.5;;;;;;;27.22;33.10742;936.3315;;;;
2019/05/25 08:41:04;;;;;;;5.7;3.7;;;;;;;27.94;31.90234;936.2867;;;;
2019/05/25 08:43:35;;;;;;;7.3;4;;;;;;;27.82;31.03906;936.3109;;;;
2019/05/25 08:46:00;;;;;;;6.5;4;;;;;;;27.38;31.03125;936.2844;;;;
2019/05/25 08:48:33;;;;;;;7;4.1;;;;;;;27.31;30.78906;936.2919;;;;
2019/05/25 08:51:05;;;;;;;12.8;4.4;;;;;;;26.62;32.22266;936.2634;;;;
2019/05/25 08:53:46;;;;;;;7;4.4;;;;;;;26.36;34.42871;936.3495;;;;
2019/05/25 08:56:18;;;;;;;7.4;4;;;;;;;26.95;33.44336;936.3449;;;;
2019/05/25 08:58:43;;;;;;;6.6;4;;;;;;;27.16;32.16699;936.3417;;;;
2019/05/25 09:01:15;;;;;;;7.5;4;;;;;;;26.72;32.25391;936.3167;;;;
2019/05/25 09:03:50;;;;;;;7.6;4.2;;;;;;;26.69;32.66602;936.3008;;;;
2019/05/25 09:06:22;;;;;;;7;3.9;;;;;;;26.42;33.16699;936.2614;;;;
2019/05/25 09:08:52;;;;;;;6.3;3.9;;;;;;;26.45;33.51172;936.3442;;;;
2019/05/25 09:11:17;;;;;;;7.5;3.8;;;;;;;25.98;34.45898;936.3619;;;;
2019/05/25 09:13:44;;;;;;;6.8;3.7;;;;;;;26.28;33.73633;936.3656;;;;
2019/05/25 09:16:10;;;;;;;6.2;3.9;;;;;;;25.83;33.63184;936.3507;;;;
2019/05/25 09:18:36;;;;;;;7.2;4;;;;;;;25.99;34.47168;936.3906;;;;
2019/05/25 09:21:13;;;;;;;6.4;4.1;;;;;;;25.68;34.77832;936.392;;;;
2019/05/25 09:23:43;;;;;;;7;4.6;;;;;;;25.16;35.59961;936.4023;;;;
2019/05/25 09:26:14;;;;;;;8.1;4.4;;;;;;;25.3;33.99414;936.359;;;;
2019/05/25 09:28:43;;;;;;;6.8;4.3;;;;;;;25.39;34.90918;936.3718;;;;
2019/05/25 09:31:15;;;;;;;6.8;4.8;;;;;;;25.17;35.55371;936.3672;;;;
2019/05/25 09:33:41;;;;;;;7.1;4.9;;;;;;;25.29;36.69727;936.4344;;;;
2019/05/25 09:36:11;;;;;;;8.3;4.3;;;;;;;24.96;35.2998;936.3387;;;;
2019/05/25 09:38:40;;;;;;;8.9;4.3;;;;;;;24.93;36.30078;936.3775;;;;
2019/05/25 09:41:23;;;;;;;5;3.3;;;;;;;24.87;37.22852;936.408;;;;
2019/05/25 09:43:53;;;;;;;8.9;4.4;;;;;;;23.17;41.12988;936.4683;;;;
2019/05/25 09:46:15;;;;;;;11.8;4.1;;;;;;;23.57;41.36621;936.3929;;;;
2019/05/25 09:48:49;;;;;;;10.3;5.7;;;;;;;23.47;40.6748;936.3503;;;;
2019/05/25 09:51:21;;;;;;;7.8;4.8;;;;;;;23.52;38.43359;936.3864;;;;
2019/05/25 09:54:01;;;;;;;8.1;4.8;;;;;;;23.68;38.50586;936.355;;;;
2019/05/25 09:56:30;;;;;;;11.4;5.1;;;;;;;23.39;37.03418;936.3197;;;;
2019/05/25 09:58:57;;;;;;;8.7;4.9;;;;;;;23.69;38.53027;936.3708;;;;
2019/05/25 10:01:23;;;;;;;7.2;5.4;;;;;;;23.49;38.5127;936.313;;;;
2019/05/25 10:03:58;;;;;;;7.9;5.2;;;;;;;23.76;39.57129;936.3995;;;;
2019/05/25 10:06:30;;;;;;;9.6;6.6;;;;;;;23.34;37.13574;936.4227;;;;
2019/05/25 10:09:05;;;;;;;10.1;6.8;;;;;;;23.54;36.8125;936.4311;;;;
2019/05/25 10:11:37;;;;;;;8.6;6.2;;;;;;;23.54;36.82422;936.4571;;;;
2019/05/25 10:14:19;;;;;;;9.7;6.4;;;;;;;23.63;36.90137;936.47;;;;
2019/05/25 10:17:01;;;;;;;10.5;6.2;;;;;;;23.64;38.1377;936.4598;;;;
2019/05/25 10:19:30;;;;;;;9.8;6.1;;;;;;;23.62;37.48926;936.4369;;;;
2019/05/25 10:22:06;;;;;;;11.8;6;;;;;;;23.69;38.5293;936.3798;;;;
2019/05/25 10:24:32;;;;;;;10.1;6.6;;;;;;;23.33;39.20313;936.3678;;;;
2019/05/25 10:27:03;;;;;;;10.8;6.3;;;;;;;23.8;39.39844;936.3886;;;;
2019/05/25 10:29:38;;;;;;;10.4;6.9;;;;;;;23.88;38.05176;936.3372;;;;
2019/05/25 10:32:15;;;;;;;10.2;6.2;;;;;;;24.1;39.16602;936.3831;;;;
2019/05/25 10:34:49;;;;;;;8.6;5.9;;;;;;;24.38;37.01074;936.3444;;;;
2019/05/25 10:37:27;;;;;;;8.1;5.8;;;;;;;24.37;35.20703;936.3116;;;;
2019/05/25 10:39:59;;;;;;;9.1;6.2;;;;;;;24.82;36.32715;936.3078;;;;
2019/05/25 10:42:43;;;;;;;10.5;6.4;;;;;;;25.07;34.2832;936.3045;;;;
2019/05/25 10:45:16;;;;;;;9.2;6.6;;;;;;;24.76;38.48145;936.2169;;;;
2019/05/25 10:47:56;;;;;;;13;6.4;;;;;;;24.63;37.29004;936.1898;;;;
2019/05/25 10:50:30;;;;;;;11.8;6.3;;;;;;;24.59;38.83203;936.1384;;;;
2019/05/25 12:52:30;;;;;;;12.7;6.8;;;;;;;23.1;39.48926;935.5399;;;;
2019/05/25 12:55:31;;;;;;;9.8;4.4;;;;;;;23.22;40.4873;935.5905;;;;
2019/05/25 12:57:55;;;;;;;9.3;5.2;;;;;;;22.7;41.80176;935.598;;;;
2019/05/25 13:00:23;;;;;;;7.3;4.4;;;;;;;22.76;41.37305;935.6019;;;;
2019/05/25 13:02:53;;;;;;;6.9;4.4;;;;;;;23.07;41.47168;935.6472;;;;
2019/05/25 13:05:22;;;;;;;7.7;4.1;;;;;;;23.06;41.49512;935.6314;;;;
2019/05/25 13:08:02;;;;;;;5.7;4.2;;;;;;;22.87;42.2998;935.6505;;;;
2019/05/25 13:10:42;;;;;;;5.3;3.5;;;;;;;22.99;40.33691;935.6114;;;;
2019/05/25 13:13:12;;;;;;;4.9;3.7;;;;;;;22.79;39.48535;935.6973;;;;
2019/05/25 13:15:45;;;;;;;7.4;4.2;;;;;;;23.13;38.76465;935.6251;;;;
2019/05/25 13:18:19;;;;;;;5.9;4.4;;;;;;;22.86;40.39551;935.6618;;;;
2019/05/25 13:20:53;;;;;;;5.3;3.9;;;;;;;23.02;38.36621;935.6459;;;;
2019/05/25 13:23:33;;;;;;;5.6;3.8;;;;;;;23.15;38.19043;935.6177;;;;
2019/05/25 13:26:04;;;;;;;6;3.6;;;;;;;23.22;39.74707;935.7205;;;;
2019/05/25 13:28:37;;;;;;;5;3.8;;;;;;;23.24;40.46582;935.6783;;;;
2019/05/25 13:31:00;;;;;;;6.3;4;;;;;;;23.04;39.67188;935.7297;;;;
2019/05/25 13:33:26;;;;;;;5.8;4.1;;;;;;;23.11;39.29102;935.6715;;;;
2019/05/25 13:36:01;;;;;;;6.5;4.1;;;;;;;23.18;38.61523;935.6872;;;;
2019/05/25 13:38:52;;;;;;;6.4;4.3;;;;;;;22.88;39.5752;935.6973;;;;
2019/05/25 13:41:15;;;;;;;5.2;4.2;;;;;;;22.88;39.69336;935.6364;;;;
2019/05/25 13:43:56;;;;;;;4.8;3.3;;;;;;;22.96;39.34766;935.66;;;;
2019/05/25 13:46:22;;;;;;;5.3;3;;;;;;;22.82;39.30078;935.7531;;;;
2019/05/25 13:48:52;;;;;;;4.6;3.3;;;;;;;22.6;40.37207;935.7733;;;;
2019/05/25 13:51:26;;;;;;;4;3.3;;;;;;;22.37;39.76465;935.8055;;;;
2019/05/25 13:54:02;;;;;;;5.8;3.4;;;;;;;22.16;39.75781;935.7883;;;;
2019/05/25 13:56:43;;;;;;;3.7;3.3;;;;;;;22.31;41.8125;935.8574;;;;
2019/05/25 13:59:18;;;;;;;8.1;3.4;;;;;;;22.29;42.02148;935.7658;;;;
2019/05/25 14:01:46;;;;;;;5.7;3.6;;;;;;;21.79;44.63281;935.8247;;;;
2019/05/25 14:04:12;;;;;;;5.1;3.5;;;;;;;21.8;46.85938;935.8574;;;;
2019/05/25 14:06:56;;;;;;;4.9;3.1;;;;;;;21.79;43.58984;935.8766;;;;
2019/05/25 14:09:16;;;;;;;6.2;3.3;;;;;;;21.93;43.27734;935.8209;;;;
2019/05/25 14:11:43;;;;;;;6.4;3.4;;;;;;;21.55;45.9209;935.7755;;;;
2019/05/25 14:14:12;;;;;;;4.9;3.6;;;;;;;21.25;46.66211;935.9313;;;;
2019/05/25 14:16:58;;;;;;;7;3.8;;;;;;;20.94;47.87988;935.9914;;;;
2019/05/25 14:19:28;;;;;;;5.7;3.2;;;;;;;20.99;49.28809;935.9619;;;;
2019/05/25 14:22:15;;;;;;;6.3;3.3;;;;;;;21.01;48.79883;936.0206;;;;
2019/05/25 14:24:43;;;;;;;7.5;3.7;;;;;;;21.11;49.27832;936.0109;;;;
2019/05/25 14:27:14;;;;;;;6.1;3.6;;;;;;;20.65;48.89941;935.9409;;;;
2019/05/25 14:29:40;;;;;;;8.2;3.9;;;;;;;20.56;48.13086;936.0051;;;;
2019/05/25 14:32:14;;;;;;;4.4;3.4;;;;;;;20.66;46.52832;935.9089;;;;
2019/05/25 14:34:47;;;;;;;6.4;4.4;;;;;;;20.61;47.7168;935.9668;;;;
2019/05/25 14:37:30;;;;;;;7.3;4.2;;;;;;;20.7;47.56152;935.9116;;;;
2019/05/25 14:40:14;;;;;;;7.9;4.4;;;;;;;20.78;48.84375;935.9228;;;;
2019/05/25 14:42:38;;;;;;;7.1;5.3;;;;;;;20.81;48.94141;935.7581;;;;
2019/05/25 14:45:07;;;;;;;8.7;5.3;;;;;;;21.07;48.32617;935.7921;;;;
2019/05/25 14:47:41;;;;;;;5.8;5.2;;;;;;;21.47;47.55176;935.8044;;;;
2019/05/25 14:50:08;;;;;;;7.2;5;;;;;;;21.52;45.91699;935.8018;;;;
2019/05/25 14:52:34;;;;;;;6.5;4.9;;;;;;;21.69;45.74707;935.791;;;;
2019/05/25 14:55:09;;;;;;;6.6;4.7;;;;;;;21.61;46.53613;935.7808;;;;
2019/05/25 14:57:37;;;;;;;7.4;4.7;;;;;;;21.46;47.78418;935.7586;;;;
2019/05/25 15:00:14;;;;;;;5;4.5;;;;;;;21.59;47.63379;935.7452;;;;
2019/05/25 15:02:50;;;;;;;6.3;4.3;;;;;;;21.46;47.59668;935.8234;;;;
2019/05/25 15:05:13;;;;;;;5.1;4.6;;;;;;;21.48;47.22363;935.7605;;;;
2019/05/25 15:07:44;;;;;;;5.7;5.1;;;;;;;21.44;49.30273;935.749;;;;
2019/05/25 15:10:09;;;;;;;5.4;4.8;;;;;;;21.28;48.60645;935.8233;;;;
2019/05/25 15:12:41;;;;;;;6;4.6;;;;;;;21.28;48.29102;935.8701;;;;
2019/05/25 15:15:06;;;;;;;5.7;4.8;;;;;;;21.13;49.73633;935.8173;;;;
2019/05/25 15:17:35;;;;;;;6.2;4.6;;;;;;;20.85;48.46582;935.8139;;;;
2019/05/25 15:20:08;;;;;;;6.1;4.7;;;;;;;20.75;49.79883;935.8624;;;;
2019/05/25 15:22:34;;;;;;;7.5;4.7;;;;;;;20.32;50.15918;935.8392;;;;
2019/05/25 15:25:05;;;;;;;5.3;4.7;;;;;;;20.18;50.62207;935.9225;;;;
2019/05/25 15:27:38;;;;;;;6.8;5.3;;;;;;;20.1;51.08008;935.912;;;;
2019/05/25 15:30:11;;;;;;;7.6;5.3;;;;;;;19.73;52.78613;935.9663;;;;
2019/05/25 15:32:43;;;;;;;6.7;4.9;;;;;;;19.44;53.2998;935.965;;;;
2019/05/25 15:35:08;;;;;;;5.9;4.6;;;;;;;19.55;53.56934;936.0156;;;;
2019/05/25 15:37:36;;;;;;;7;5;;;;;;;19.6;53.20215;936.0611;;;;
2019/05/25 15:40:02;;;;;;;5.6;4.9;;;;;;;19.42;53.13379;936.0198;;;;
2019/05/25 15:42:50;;;;;;;5.6;4.9;;;;;;;19.38;52.98926;936.0762;;;;
2019/05/25 15:45:14;;;;;;;5.8;5.2;;;;;;;19.33;53.41309;936.0754;;;;
2019/05/25 15:47:54;;;;;;;6.6;4.6;;;;;;;19.31;52.72461;936.155;;;;
2019/05/25 15:50:22;;;;;;;6.5;4.9;;;;;;;19.39;53.31641;936.1527;;;;
2019/05/25 15:52:49;;;;;;;6.2;5.2;;;;;;;19.32;52.58594;936.163;;;;
2019/05/25 15:55:31;;;;;;;6.4;4.6;;;;;;;19.19;53.00195;936.162;;;;
2019/05/25 15:57:55;;;;;;;7.3;5.2;;;;;;;19.11;53.27148;936.2068;;;;
2019/05/25 16:00:37;;;;;;;161.7;145;;;;;;;19.08;53.6748;936.2457;;;;
2019/05/25 16:03:03;;;;;;;346;309.1;;;;;;;18.85;54.83398;936.2537;;;;
2019/05/25 16:05:41;;;;;;;75.7;68.9;;;;;;;18.86;54.52051;936.3262;;;;
2019/05/25 16:08:06;;;;;;;10.3;9.2;;;;;;;18.82;55.00391;936.2238;;;;
2019/05/25 16:10:39;;;;;;;7;6.3;;;;;;;18.89;54.71094;936.2408;;;;
2019/05/25 16:13:11;;;;;;;7.9;7.1;;;;;;;18.63;55.45801;936.3122;;;;
2019/05/25 16:15:44;;;;;;;8.2;7.4;;;;;;;18.4;56.46484;936.3539;;;;
2019/05/25 16:18:18;;;;;;;9.6;8.6;;;;;;;18.36;56.64355;936.3688;;;;
2019/05/25 16:20:55;;;;;;;11;9.1;;;;;;;18.14;58.30078;936.3881;;;;
2019/05/25 16:23:23;;;;;;;10.4;9.3;;;;;;;18.05;59.75293;936.4503;;;;
2019/05/25 16:25:58;;;;;;;7.9;7.2;;;;;;;18.23;59.10254;936.4629;;;;
2019/05/25 16:28:27;;;;;;;13.1;10.5;;;;;;;18.28;58.64355;936.6158;;;;
2019/05/25 16:30:51;;;;;;;10.5;8.5;;;;;;;18.24;61.68457;936.6157;;;;
2019/05/25 16:33:27;;;;;;;14.2;7.9;;;;;;;18;64.34375;936.7108;;;;
2019/05/25 16:36:05;;;;;;;9.8;7.7;;;;;;;17.67;66.06055;936.8122;;;;
2019/05/25 16:38:38;;;;;;;10;6.9;;;;;;;17.3;66.57324;936.8018;;;;
2019/05/25 16:41:07;;;;;;;8.7;6.8;;;;;;;17.16;67.62988;936.8621;;;;
2019/05/25 16:43:46;;;;;;;8.3;5.8;;;;;;;17.11;66.20801;936.9498;;;;
2019/05/25 16:46:15;;;;;;;12.5;9.7;;;;;;;17.02;70.22949;937.0414;;;;
2019/05/25 16:48:51;;;;;;;10.7;8.7;;;;;;;16.89;71.5166;937.1817;;;;
2019/05/25 16:51:25;;;;;;;16.1;9.7;;;;;;;16.99;73.36523;937.2508;;;;
2019/05/25 16:54:02;;;;;;;10.1;8.1;;;;;;;16.3;74.41602;937.4067;;;;
2019/05/25 16:56:42;;;;;;;6.8;5.7;;;;;;;15.71;72.66406;937.3723;;;;
2019/05/25 16:58:59;;;;;;;7.3;6.3;;;;;;;15.7;74.16602;937.4246;;;;
2019/05/25 17:01:45;;;;;;;6.5;5.9;;;;;;;15.61;75.06055;937.4528;;;;
2019/05/25 17:04:29;;;;;;;7.3;6;;;;;;;15.33;75.64844;937.4534;;;;
2019/05/25 17:06:53;;;;;;;7.5;6.3;;;;;;;15.26;76.46777;937.5223;;;;
2019/05/25 17:09:21;;;;;;;8.7;7.2;;;;;;;15.21;78.39844;937.5234;;;;
2019/05/25 17:11:45;;;;;;;9.8;7.4;;;;;;;15.47;79.4043;937.6097;;;;
2019/05/25 17:14:11;;;;;;;12.2;10.2;;;;;;;15.79;78.13184;937.6283;;;;
2019/05/25 17:16:39;;;;;;;10.6;9;;;;;;;15.84;78.04785;937.6836;;;;
2019/05/25 17:19:13;;;;;;;12.7;9.5;;;;;;;15.85;79.65723;937.8191;;;;
2019/05/25 17:21:40;;;;;;;12.9;9.4;;;;;;;15.62;79.81152;937.8928;;;;
2019/05/25 17:27:14;;;;;;;14.5;8.9;;;;;;;15.62;80.63184;937.9353;;;;
2019/05/25 17:35:10;;;;;;;11.3;8.8;;;;;;;15.79;78.27246;938.0305;;;;
2019/05/25 17:37:45;;;;;;;11.6;9;;;;;;;15.76;78.60156;938.0983;;;;
2019/05/25 17:40:21;;;;;;;11.2;9.4;;;;;;;15.72;79.00879;938.1125;;;;
2019/05/25 17:42:48;;;;;;;14;12.2;;;;;;;15.84;78.21094;938.1194;;;;
2019/05/25 17:45:45;;;;;;;12;10.8;;;;;;;15.89;78;938.1181;;;;
2019/05/25 17:52:13;;;;;;;14.6;11.9;;;;;;;15.47;79.4043;938.2003;;;;
2019/05/25 17:54:44;;;;;;;14.6;10.8;;;;;;;15.17;80.60645;938.1398;;;;
2019/05/25 17:57:20;;;;;;;11.5;10.3;;;;;;;15.18;81.06934;938.1429;;;;
2019/05/25 17:59:46;;;;;;;13.4;11.3;;;;;;;15.33;81.41895;938.2076;;;;
2019/05/25 18:02:24;;;;;;;12.4;11.1;;;;;;;15.34;80.4082;938.1586;;;;
2019/05/25 18:04:43;;;;;;;13.2;11.9;;;;;;;15.21;81.26074;938.178;;;;
2019/05/25 18:07:25;;;;;;;13.9;11.9;;;;;;;15.14;81.47949;938.1641;;;;
2019/05/25 18:10:02;;;;;;;12.9;11.6;;;;;;;15.18;81.20801;938.1558;;;;
2019/05/25 18:12:25;;;;;;;15.7;14;;;;;;;15.22;82.43945;938.211;;;;
2019/05/25 18:15:03;;;;;;;17.1;14.7;;;;;;;15.05;82.62793;938.2169;;;;
2019/05/25 18:17:42;;;;;;;20.4;17.6;;;;;;;15.1;82.91309;938.2542;;;;
2019/05/25 18:20:18;;;;;;;17.3;15.4;;;;;;;15.32;81.75391;938.2511;;;;
2019/05/25 18:22:56;;;;;;;17.4;14.1;;;;;;;15.24;81.6709;938.2646;;;;
2019/05/25 18:25:28;;;;;;;16.2;13.4;;;;;;;15.15;82.16016;938.2747;;;;
2019/05/25 18:27:59;;;;;;;13.8;12.2;;;;;;;15.05;82.38379;938.3116;;;;
2019/05/25 18:30:26;;;;;;;13.5;11.9;;;;;;;15.09;82.06934;938.3498;;;;
2019/05/25 18:32:53;;;;;;;15.9;14.2;;;;;;;15.32;82.14648;938.3843;;;;
2019/05/25 18:35:20;;;;;;;16.6;13.4;;;;;;;15.37;81.67188;938.4119;;;;
2019/05/25 18:37:50;;;;;;;16.7;14.6;;;;;;;15.35;82.11914;938.4056;;;;
2019/05/25 18:40:20;;;;;;;13.3;11.9;;;;;;;15.18;81.69238;938.3995;;;;
2019/05/25 18:42:48;;;;;;;15.8;12.6;;;;;;;15.16;81.85254;938.4398;;;;
2019/05/25 18:45:21;;;;;;;13.9;12.5;;;;;;;14.9;82.81836;938.4391;;;;
2019/05/25 18:47:53;;;;;;;15.2;13.1;;;;;;;14.7;83.84082;938.4866;;;;
2019/05/25 18:50:25;;;;;;;15.8;12.4;;;;;;;14.67;84.22754;938.5284;;;;
2019/05/25 18:52:50;;;;;;;16.9;11.8;;;;;;;14.55;82.92285;938.5593;;;;
2019/05/25 18:55:22;;;;;;;16;12.8;;;;;;;14.3;84.28125;938.6368;;;;
2019/05/25 18:57:50;;;;;;;16.3;12.7;;;;;;;14.44;84.18262;938.6135;;;;
2019/05/25 19:00:13;;;;;;;14.6;10.7;;;;;;;14.34;84.25391;938.6671;;;;
2019/05/25 19:02:39;;;;;;;14.5;8.1;;;;;;;14.43;82.11816;938.6488;;;;
2019/05/25 19:05:04;;;;;;;9.6;6.9;;;;;;;14.33;82.74316;938.6599;;;;
2019/05/25 19:07:33;;;;;;;11;7.7;;;;;;;14.63;82.4668;938.6825;;;;
2019/05/25 19:10:04;;;;;;;10;6.5;;;;;;;14.79;82.05762;938.6094;;;;
2019/05/25 19:12:36;;;;;;;7.6;5.9;;;;;;;14.86;81.40234;938.688;;;;
2019/05/25 19:15:00;;;;;;;10.3;5.5;;;;;;;14.79;82.05762;938.7762;;;;